Stuart, IA

7:22 PM CDT on April 18, 2015 (GMT -0500)
Creston Municipal | | Change Station
CLOSE
Current Station
Airport
Location: Creston,
Elevation: 1293 ft
Nearby Weather Stations

Elev 1293 ft 41.02 °N, 94.36 °W | Updated 7 minutes ago

Rain
Rain
61 °F
Feels Like 61 °F
N
7
Wind Variable Wind from ENE

Today
High -- | Low -- °F
--% Chance of Precip.
Yesterday
High -- | Low -- °F
Precip. -- in
6:33 AM 8:00 PM
New Moon, 0% visible
Pressure 29.85 in
Visibility 10.0 miles
Clouds Scattered Clouds 500 ft
Scattered Clouds 900 ft
Mostly Cloudy 11000 ft
Dew Point 61 °F
Humidity 100%
Rainfall 0.19 in
Snow Depth Not available.
UV 0 out of 12
Pollen 2.80 out of 12
Air Quality Not available.
Flu Activity Local Activity
METAR KCSQ 190015Z AUTO 06006KT 10SM SCT005 SCT009 BKN110 16/16 A2985 RMK AO2

More Conditions Fewer Conditions

Pressure 29.85 in
Visibility 10.0 miles
Clouds Scattered Clouds 500 ft
Scattered Clouds 900 ft
Mostly Cloudy 11000 ft
Dew Point 61 °F
Humidity 100%
Rainfall 0.19 in
Snow Depth Not available.
UV 0 out of 12
Pollen 2.80 out of 12
Air Quality Not available.
Flu Activity Local Activity
METAR KCSQ 190015Z AUTO 06006KT 10SM SCT005 SCT009 BKN110 16/16 A2985 RMK AO2

More Conditions Fewer Conditions

10-Day Weather Forecast

Almanac

Astronomy

Apr. 18, 2015 Rise Set
Actual Time
Civil Twilight
Nautical Twilight
Astronomical Twilight
Moon
Length of Visible Light
Length of Day
Tomorrow will be .
, % of the Moon is Illuminated

Today's Extremes

State Highs State Lows

Community

WunderPhotos

Upload Photos

1,814,594 photos uploaded!

WunderBlogs® & News

Nearby

Air Quality

  Air Quality AQ Index Pollutant
Not available.

Snow Depth

Station Depth Elevation

Earthquake Activity

City Distance Mag. Time & Date
Minimum magnitude displayed is 2.5.

Coastal Water Temperatures

Place Temperature

Stations

Nearby Weather Stations

Station Location Temp. Windchill Dew Point Humidity Wind Precip. Elev Updated Type